Westover Hills, Texas
Current Conditions -  °F | °C
As of 4:52 AM on Tuesday 21 Oct 2014 (Local Time) from KNFW Reporting Station
Clear Clear  
Wind Chill: 65°   Ceiling: Unl
Heat Index: 65°   Visibility: 10mi
Dew Point: 58°   Wind: 5mph
Humidity: 78%   Direction: 300°WNW
Pressure: 30.09"   Gusts: NA
Location:  32.74°N, 97.3832°W
Report Text: KNFW 210952Z AUTO 30004KT 10SM CLR 18/14 A3009 RMK AO2 SLP172 T01830144 CHINO N VISNO N $
Loading
Personal Weather Stations






























Interactive Weather Map
Tropical Storm Tracking
New forecast layout! Learn more

10-Day Weather Forecast

Advertisements
Track Severe Weather on mobile